Private Wetterstation Sandau
Wetterdaten: Freitag, 01.03.2013
Datum Zeit Temp. A. Feuchte A. Luftdruck Regen Wind Richtung Richtung Taupunkt Windchill
01.03.2013 00:01 1,3 C 92 % 1022,8 hPa 0,0 l/m 10,1 km/h (2 Bft) W-SW 247 0,1 C -1,8 C
01.03.2013 00:06 1,3 C 92 % 1022,7 hPa 0,0 l/m 5,0 km/h (1 Bft) W 270 0,1 C -0,1 C
01.03.2013 00:11 1,4 C 92 % 1022,9 hPa 0,0 l/m 10,1 km/h (2 Bft) N-NW 337 0,2 C -1,7 C
01.03.2013 00:16 1,4 C 92 % 1022,5 hPa 0,0 l/m 5,0 km/h (1 Bft) W 270 0,2 C -0,0 C
01.03.2013 00:21 1,5 C 93 % 1022,6 hPa 0,0 l/m 10,1 km/h (2 Bft) W-SW 247 0,5 C -1,5 C
01.03.2013 00:26 1,6 C 93 % 1022,8 hPa 0,0 l/m 3,2 km/h (1 Bft) W-SW 247 0,6 C 1,6 C
01.03.2013 00:31 1,6 C 93 % 1022,7 hPa 0,0 l/m 3,2 km/h (1 Bft) W 270 0,6 C 1,6 C
01.03.2013 00:36 1,6 C 93 % 1022,7 hPa 0,0 l/m 11,9 km/h (2 Bft) W-SW 247 0,6 C -1,8 C
01.03.2013 00:41 1,7 C 93 % 1022,6 hPa 0,0 l/m 13,0 km/h (3 Bft) W-SW 247 0,7 C -1,9 C
01.03.2013 00:46 1,8 C 93 % 1022,5 hPa 0,0 l/m 5,0 km/h (1 Bft) W-SW 247 0,8 C 0,5 C
01.03.2013 00:51 1,8 C 93 % 1022,5 hPa 0,0 l/m 7,9 km/h (2 Bft) W 270 0,8 C -0,6 C
01.03.2013 00:56 1,8 C 93 % 1022,3 hPa 0,0 l/m 7,9 km/h (2 Bft) W-SW 247 0,8 C -0,6 C
01.03.2013 01:01 1,8 C 93 % 1022,4 hPa 0,0 l/m 6,5 km/h (2 Bft) W-SW 247 0,8 C -0,1 C
01.03.2013 01:06 1,9 C 93 % 1022,3 hPa 0,0 l/m 14,8 km/h (3 Bft) W 270 0,9 C -2,0 C
01.03.2013 01:11 1,9 C 93 % 1022,1 hPa 0,0 l/m 19,1 km/h (3 Bft) W 270 0,9 C -2,7 C
01.03.2013 01:16 1,9 C 93 % 1022,0 hPa 0,0 l/m 11,2 km/h (2 Bft) W 270 0,9 C -1,3 C
01.03.2013 01:21 1,9 C 93 % 1022,1 hPa 0,0 l/m 7,2 km/h (2 Bft) W 270 0,9 C -0,3 C
01.03.2013 01:26 1,9 C 93 % 1021,9 hPa 0,0 l/m 11,5 km/h (2 Bft) W 270 0,9 C -1,4 C
01.03.2013 01:31 1,9 C 93 % 1021,9 hPa 0,0 l/m 17,3 km/h (3 Bft) W 270 0,9 C -2,5 C
01.03.2013 01:36 1,9 C 93 % 1021,9 hPa 0,0 l/m 11,9 km/h (2 Bft) W-SW 247 0,9 C -1,5 C
01.03.2013 01:41 1,9 C 93 % 1021,7 hPa 0,0 l/m 15,5 km/h (3 Bft) W 270 0,9 C -2,2 C
01.03.2013 01:46 1,9 C 93 % 1021,7 hPa 0,0 l/m 2,9 km/h (1 Bft) W-SW 247 0,9 C 1,9 C
01.03.2013 01:51 1,9 C 93 % 1021,8 hPa 0,0 l/m 10,4 km/h (2 Bft) W 270 0,9 C -1,1 C
01.03.2013 01:56 1,9 C 93 % 1021,8 hPa 0,0 l/m 18,0 km/h (3 Bft) W-SW 247 0,9 C -2,6 C
01.03.2013 02:01 1,9 C 93 % 1021,7 hPa 0,0 l/m 18,0 km/h (3 Bft) W 270 0,9 C -2,6 C
01.03.2013 02:06 2,1 C 93 % 1021,6 hPa 0,0 l/m 6,8 km/h (2 Bft) W-SW 247 1,1 C 0,1 C
01.03.2013 02:11 2,1 C 93 % 1021,8 hPa 0,0 l/m 4,3 km/h (1 Bft) W-SW 247 1,1 C 2,1 C
01.03.2013 02:16 2,1 C 93 % 1021,8 hPa 0,0 l/m 4,7 km/h (1 Bft) W 270 1,1 C 0,9 C
01.03.2013 02:21 2,1 C 93 % 1021,6 hPa 0,0 l/m 5,0 km/h (1 Bft) NW 315 1,1 C 0,8 C
01.03.2013 02:26 2,2 C 93 % 1021,5 hPa 0,0 l/m 5,8 km/h (2 Bft) NW 315 1,2 C 0,6 C
01.03.2013 02:31 2,2 C 94 % 1021,6 hPa 0,0 l/m 7,2 km/h (2 Bft) W-NW 292 1,3 C 0,1 C
01.03.2013 02:36 2,3 C 94 % 1021,5 hPa 0,0 l/m 4,3 km/h (1 Bft) W 270 1,4 C 2,3 C
01.03.2013 02:41 2,3 C 94 % 1021,6 hPa 0,0 l/m 5,0 km/h (1 Bft) W-NW 292 1,4 C 1,0 C
01.03.2013 02:46 2,4 C 94 % 1021,6 hPa 0,0 l/m 12,6 km/h (3 Bft) NW 315 1,5 C -1,0 C
01.03.2013 02:51 2,4 C 94 % 1021,7 hPa 0,0 l/m 13,7 km/h (3 Bft) W-NW 292 1,5 C -1,2 C
01.03.2013 02:56 2,5 C 94 % 1021,7 hPa 0,0 l/m 6,5 km/h (2 Bft) W-NW 292 1,6 C 0,7 C
01.03.2013 03:01 2,6 C 94 % 1021,7 hPa 0,0 l/m 4,3 km/h (1 Bft) W-NW 292 1,7 C 2,6 C
01.03.2013 03:06 2,6 C 94 % 1021,6 hPa 0,0 l/m 9,4 km/h (2 Bft) NW 315 1,7 C -0,1 C
01.03.2013 03:11 2,6 C 94 % 1021,4 hPa 0,0 l/m 6,8 km/h (2 Bft) W-NW 292 1,7 C 0,7 C
01.03.2013 03:16 2,7 C 94 % 1021,6 hPa 0,0 l/m 9,0 km/h (2 Bft) NW 315 1,8 C 0,2 C
01.03.2013 03:21 2,8 C 94 % 1021,5 hPa 0,0 l/m 10,8 km/h (2 Bft) W 270 1,9 C -0,2 C
01.03.2013 03:26 2,8 C 94 % 1021,4 hPa 0,0 l/m 13,3 km/h (3 Bft) W-NW 292 1,9 C -0,7 C
01.03.2013 03:31 2,8 C 94 % 1021,4 hPa 0,0 l/m 5,8 km/h (2 Bft) W-NW 292 1,9 C 1,3 C
01.03.2013 03:36 2,9 C 94 % 1021,2 hPa 0,0 l/m 4,3 km/h (1 Bft) NW 315 2,0 C 2,9 C
01.03.2013 03:41 2,9 C 94 % 1021,2 hPa 0,0 l/m 5,8 km/h (2 Bft) NW 315 2,0 C 1,4 C
01.03.2013 03:46 2,9 C 94 % 1021,4 hPa 0,0 l/m 6,5 km/h (2 Bft) NW 315 2,0 C 1,1 C
01.03.2013 03:51 2,9 C 94 % 1021,5 hPa 0,0 l/m 4,7 km/h (1 Bft) W-NW 292 2,0 C 1,8 C
01.03.2013 03:56 2,9 C 94 % 1021,2 hPa 0,0 l/m 3,2 km/h (1 Bft) W 270 2,0 C 2,9 C
01.03.2013 04:01 2,9 C 94 % 1021,2 hPa 0,0 l/m 12,2 km/h (2 Bft) NW 315 2,0 C -0,3 C
01.03.2013 04:06 2,9 C 94 % 1021,3 hPa 0,0 l/m 3,2 km/h (1 Bft) W 270 2,0 C 2,9 C
01.03.2013 04:11 2,9 C 94 % 1021,2 hPa 0,0 l/m 3,6 km/h (1 Bft) W-NW 292 2,0 C 2,9 C
01.03.2013 04:16 2,9 C 94 % 1021,1 hPa 0,0 l/m 1,4 km/h (1 Bft) N-NW 337 2,0 C 2,9 C
01.03.2013 04:21 2,9 C 94 % 1021,1 hPa 0,0 l/m 4,3 km/h (1 Bft) NW 315 2,0 C 2,9 C
01.03.2013 04:26 2,9 C 93 % 1021,1 hPa 0,0 l/m 4,0 km/h (1 Bft) NW 315 1,9 C 2,9 C
01.03.2013 04:31 2,9 C 93 % 1021,1 hPa 0,0 l/m 8,3 km/h (2 Bft) N-NW 337 1,9 C 0,6 C
01.03.2013 04:36 2,9 C 93 % 1021,2 hPa 0,0 l/m 0,0 km/h (0 Bft) W-NW 292 1,9 C 2,9 C
01.03.2013 04:41 2,9 C 93 % 1021,1 hPa 0,0 l/m 7,9 km/h (2 Bft) N-NW 337 1,9 C 0,7 C
01.03.2013 04:46 2,9 C 93 % 1021,2 hPa 0,0 l/m 6,1 km/h (2 Bft) NW 315 1,9 C 1,3 C
01.03.2013 04:51 2,9 C 93 % 1021,0 hPa 0,0 l/m 6,1 km/h (2 Bft) NW 315 1,9 C 1,3 C
01.03.2013 04:56 2,9 C 93 % 1021,1 hPa 0,0 l/m 2,9 km/h (1 Bft) NW 315 1,9 C 2,9 C
01.03.2013 05:01 2,9 C 92 % 1021,2 hPa 0,0 l/m 5,8 km/h (2 Bft) N-NW 337 1,7 C 1,4 C
01.03.2013 05:06 2,9 C 92 % 1021,1 hPa 0,0 l/m 0,0 km/h (0 Bft) W-NW 292 1,7 C 2,9 C
01.03.2013 05:11 2,9 C 92 % 1021,0 hPa 0,0 l/m 4,3 km/h (1 Bft) W 270 1,7 C 2,9 C
01.03.2013 05:16 2,8 C 92 % 1021,1 hPa 0,0 l/m 9,4 km/h (2 Bft) N-NO 22 1,6 C 0,2 C
01.03.2013 05:21 2,8 C 92 % 1021,1 hPa 0,0 l/m 9,7 km/h (2 Bft) NW 315 1,6 C 0,1 C
01.03.2013 05:26 2,8 C 91 % 1021,0 hPa 0,0 l/m 9,7 km/h (2 Bft) N-NW 337 1,5 C 0,1 C
01.03.2013 05:31 2,8 C 91 % 1021,0 hPa 0,0 l/m 9,4 km/h (2 Bft) W-NW 292 1,5 C 0,2 C
01.03.2013 05:36 2,8 C 91 % 1021,2 hPa 0,0 l/m 7,2 km/h (2 Bft) W-NW 292 1,5 C 0,8 C
01.03.2013 05:41 2,8 C 91 % 1021,1 hPa 0,0 l/m 6,1 km/h (2 Bft) NW 315 1,5 C 1,2 C
01.03.2013 05:46 2,8 C 90 % 1021,1 hPa 0,0 l/m 4,0 km/h (1 Bft) W-NW 292 1,3 C 2,8 C
01.03.2013 05:51 2,8 C 90 % 1021,2 hPa 0,0 l/m 3,6 km/h (1 Bft) W-NW 292 1,3 C 2,8 C
01.03.2013 05:56 2,8 C 90 % 1020,8 hPa 0,0 l/m 9,7 km/h (2 Bft) NW 315 1,3 C 0,1 C
01.03.2013 06:01 2,8 C 90 % 1021,0 hPa 0,0 l/m 5,0 km/h (1 Bft) W-NW 292 1,3 C 1,6 C
01.03.2013 06:06 2,7 C 90 % 1020,8 hPa 0,0 l/m 17,6 km/h (3 Bft) W-SW 247 1,2 C -1,5 C
01.03.2013 06:11 2,7 C 90 % 1021,0 hPa 0,0 l/m 2,2 km/h (1 Bft) W 270 1,2 C 2,7 C
01.03.2013 06:16 2,7 C 89 % 1020,8 hPa 0,0 l/m 6,5 km/h (2 Bft) NW 315 1,1 C 0,9 C
01.03.2013 06:21 2,7 C 89 % 1020,9 hPa 0,0 l/m 7,9 km/h (2 Bft) NW 315 1,1 C 0,5 C
01.03.2013 06:26 2,7 C 89 % 1020,8 hPa 0,0 l/m 11,5 km/h (2 Bft) NW 315 1,1 C -0,4 C
01.03.2013 06:31 2,6 C 89 % 1020,8 hPa 0,0 l/m 9,4 km/h (2 Bft) N-NW 337 1,0 C -0,1 C
01.03.2013 06:36 2,6 C 89 % 1021,0 hPa 0,0 l/m 6,1 km/h (2 Bft) W 270 1,0 C 0,9 C
01.03.2013 06:41 2,7 C 89 % 1020,9 hPa 0,0 l/m 9,4 km/h (2 Bft) NW 315 1,1 C 0,1 C
01.03.2013 06:46 2,6 C 89 % 1021,0 hPa 0,0 l/m 6,1 km/h (2 Bft) W-NW 292 1,0 C 0,9 C
01.03.2013 06:51 2,6 C 89 % 1020,8 hPa 0,0 l/m 5,0 km/h (1 Bft) NW 315 1,0 C 1,4 C
01.03.2013 06:56 2,7 C 89 % 1020,8 hPa 0,0 l/m 4,0 km/h (1 Bft) W 270 1,1 C 2,7 C
01.03.2013 07:01 2,6 C 88 % 1021,0 hPa 0,0 l/m 6,1 km/h (2 Bft) W-NW 292 0,8 C 0,9 C
01.03.2013 07:06 2,6 C 88 % 1021,0 hPa 0,0 l/m 0,0 km/h (0 Bft) NW 315 0,8 C 2,6 C
01.03.2013 07:11 2,6 C 88 % 1020,8 hPa 0,0 l/m 4,3 km/h (1 Bft) NW 315 0,8 C 2,6 C
01.03.2013 07:16 2,6 C 88 % 1021,0 hPa 0,0 l/m 8,3 km/h (2 Bft) NW 315 0,8 C 0,2 C
01.03.2013 07:21 2,6 C 88 % 1021,0 hPa 0,0 l/m 2,2 km/h (1 Bft) W-NW 292 0,8 C 2,6 C
01.03.2013 07:26 2,6 C 88 % 1021,1 hPa 0,0 l/m 6,1 km/h (2 Bft) W 270 0,8 C 0,9 C
01.03.2013 07:31 2,5 C 88 % 1021,1 hPa 0,0 l/m 7,9 km/h (2 Bft) NW 315 0,7 C 0,2 C
01.03.2013 07:36 2,6 C 88 % 1021,3 hPa 0,0 l/m 5,0 km/h (1 Bft) NW 315 0,8 C 1,4 C
01.03.2013 07:41 2,6 C 88 % 1021,5 hPa 0,0 l/m 7,6 km/h (2 Bft) W 270 0,8 C 0,4 C
01.03.2013 07:46 2,5 C 88 % 1021,2 hPa 0,0 l/m 5,4 km/h (1 Bft) W-NW 292 0,7 C 1,1 C
01.03.2013 07:51 2,6 C 88 % 1021,5 hPa 0,0 l/m 7,6 km/h (2 Bft) NW 315 0,8 C 0,4 C
01.03.2013 07:56 2,5 C 88 % 1021,5 hPa 0,0 l/m 14,8 km/h (3 Bft) N-NO 22 0,7 C -1,3 C
01.03.2013 08:01 2,5 C 87 % 1021,4 hPa 0,0 l/m 11,2 km/h (2 Bft) N-NW 337 0,6 C -0,6 C
01.03.2013 08:06 2,5 C 87 % 1021,6 hPa 0,0 l/m 6,1 km/h (2 Bft) NW 315 0,6 C 0,8 C
01.03.2013 08:11 2,5 C 87 % 1021,8 hPa 0,0 l/m 9,7 km/h (2 Bft) N-NW 337 0,6 C -0,3 C
01.03.2013 08:16 2,5 C 87 % 1021,6 hPa 0,0 l/m 6,8 km/h (2 Bft) N 360 0,6 C 0,6 C
01.03.2013 08:21 2,5 C 87 % 1021,6 hPa 0,0 l/m 8,3 km/h (2 Bft) NW 315 0,6 C 0,1 C
01.03.2013 08:26 2,5 C 87 % 1021,7 hPa 0,0 l/m 7,9 km/h (2 Bft) NW 315 0,6 C 0,2 C
01.03.2013 08:31 2,5 C 87 % 1021,9 hPa 0,0 l/m 7,9 km/h (2 Bft) W-NW 292 0,6 C 0,2 C
01.03.2013 08:36 2,5 C 87 % 1021,9 hPa 0,0 l/m 5,0 km/h (1 Bft) N-NO 22 0,6 C 1,2 C
01.03.2013 08:41 2,5 C 86 % 1021,9 hPa 0,0 l/m 4,0 km/h (1 Bft) W-NW 292 0,4 C 2,5 C
01.03.2013 08:46 2,5 C 86 % 1021,9 hPa 0,0 l/m 9,4 km/h (2 Bft) W-NW 292 0,4 C -0,2 C
01.03.2013 08:51 2,6 C 86 % 1021,9 hPa 0,0 l/m 6,1 km/h (2 Bft) NW 315 0,5 C 0,9 C
01.03.2013 08:56 2,6 C 86 % 1022,1 hPa 0,0 l/m 6,5 km/h (2 Bft) NW 315 0,5 C 0,8 C
01.03.2013 09:01 2,6 C 86 % 1022,2 hPa 0,0 l/m 10,8 km/h (2 Bft) NW 315 0,5 C -0,4 C
01.03.2013 09:06 2,6 C 86 % 1022,0 hPa 0,0 l/m 2,5 km/h (1 Bft) NW 315 0,5 C 2,6 C
01.03.2013 09:11 2,6 C 86 % 1022,1 hPa 0,0 l/m 6,1 km/h (2 Bft) N 360 0,5 C 0,9 C
01.03.2013 09:16 2,6 C 86 % 1022,1 hPa 0,0 l/m 11,9 km/h (2 Bft) NW 315 0,5 C -0,6 C
01.03.2013 09:21 2,5 C 86 % 1022,1 hPa 0,0 l/m 10,8 km/h (2 Bft) NW 315 0,4 C -0,5 C
01.03.2013 09:26 2,6 C 86 % 1022,1 hPa 0,0 l/m 4,7 km/h (1 Bft) NW 315 0,5 C 1,5 C
01.03.2013 09:31 2,6 C 86 % 1022,0 hPa 0,0 l/m 10,1 km/h (2 Bft) N-NW 337 0,5 C -0,2 C
01.03.2013 09:36 2,6 C 86 % 1022,2 hPa 0,0 l/m 7,2 km/h (2 Bft) NW 315 0,5 C 0,6 C
01.03.2013 09:41 2,7 C 86 % 1022,2 hPa 0,0 l/m 7,6 km/h (2 Bft) NW 315 0,6 C 0,6 C
01.03.2013 09:46 2,8 C 85 % 1022,3 hPa 0,0 l/m 4,0 km/h (1 Bft) W 270 0,5 C 2,8 C
01.03.2013 09:51 2,8 C 85 % 1022,1 hPa 0,0 l/m 16,6 km/h (3 Bft) W 270 0,5 C -1,2 C
01.03.2013 09:56 2,7 C 85 % 1022,2 hPa 0,0 l/m 13,7 km/h (3 Bft) NW 315 0,4 C -0,9 C
01.03.2013 10:01 2,8 C 85 % 1022,2 hPa 0,0 l/m 15,8 km/h (3 Bft) NW 315 0,5 C -1,1 C
01.03.2013 10:06 2,8 C 85 % 1022,5 hPa 0,0 l/m 4,0 km/h (1 Bft) W-NW 292 0,5 C 2,8 C
01.03.2013 10:11 2,8 C 85 % 1022,3 hPa 0,0 l/m 9,0 km/h (2 Bft) N-NW 337 0,5 C 0,3 C
01.03.2013 10:16 2,9 C 85 % 1022,4 hPa 0,0 l/m 6,5 km/h (2 Bft) W-NW 292 0,6 C 1,1 C
01.03.2013 10:21 2,9 C 85 % 1022,2 hPa 0,0 l/m 8,3 km/h (2 Bft) NW 315 0,6 C 0,6 C
01.03.2013 10:26 2,9 C 84 % 1022,2 hPa 0,0 l/m 10,4 km/h (2 Bft) NW 315 0,5 C 0,1 C
01.03.2013 10:31 3,1 C 84 % 1022,4 hPa 0,0 l/m 3,6 km/h (1 Bft) N-NO 22 0,7 C 3,1 C
01.03.2013 10:36 3,1 C 84 % 1022,5 hPa 0,0 l/m 4,7 km/h (1 Bft) NO 45 0,7 C 2,1 C
01.03.2013 10:41 3,1 C 84 % 1022,5 hPa 0,0 l/m 10,1 km/h (2 Bft) W-NW 292 0,7 C 0,4 C
01.03.2013 10:46 3,1 C 84 % 1022,5 hPa 0,0 l/m 9,4 km/h (2 Bft) NW 315 0,7 C 0,5 C
01.03.2013 10:51 3,2 C 84 % 1022,3 hPa 0,0 l/m 6,1 km/h (2 Bft) NW 315 0,8 C 1,6 C
01.03.2013 10:56 3,3 C 84 % 1022,6 hPa 0,0 l/m 9,0 km/h (2 Bft) NW 315 0,9 C 0,9 C
01.03.2013 11:01 3,3 C 83 % 1022,6 hPa 0,0 l/m 5,0 km/h (1 Bft) NW 315 0,7 C 2,2 C
01.03.2013 11:06 3,3 C 83 % 1022,5 hPa 0,0 l/m 17,3 km/h (3 Bft) NW 315 0,7 C -0,7 C
01.03.2013 11:11 3,4 C 83 % 1022,5 hPa 0,0 l/m 1,1 km/h (1 Bft) W-NW 292 0,8 C 3,4 C
01.03.2013 11:16 3,5 C 83 % 1022,6 hPa 0,0 l/m 14,4 km/h (3 Bft) N-NW 337 0,9 C -0,0 C
01.03.2013 11:21 3,6 C 83 % 1022,9 hPa 0,0 l/m 5,0 km/h (1 Bft) N-NW 337 1,0 C 2,5 C
01.03.2013 11:26 3,6 C 83 % 1022,8 hPa 0,0 l/m 13,7 km/h (3 Bft) NW 315 1,0 C 0,2 C
01.03.2013 11:31 3,8 C 82 % 1022,9 hPa 0,0 l/m 4,0 km/h (1 Bft) W-NW 292 1,0 C 3,8 C
01.03.2013 11:36 3,8 C 82 % 1022,9 hPa 0,0 l/m 5,8 km/h (2 Bft) NW 315 1,0 C 2,4 C
01.03.2013 11:41 3,8 C 82 % 1023,0 hPa 0,0 l/m 6,1 km/h (2 Bft) W-NW 292 1,0 C 2,3 C
01.03.2013 11:46 3,9 C 82 % 1023,0 hPa 0,0 l/m 11,9 km/h (2 Bft) NW 315 1,1 C 0,9 C
01.03.2013 11:51 3,8 C 82 % 1022,9 hPa 0,0 l/m 3,2 km/h (1 Bft) NW 315 1,0 C 3,8 C
01.03.2013 11:56 3,9 C 82 % 1022,9 hPa 0,0 l/m 12,6 km/h (3 Bft) NW 315 1,1 C 0,8 C
01.03.2013 12:01 3,9 C 81 % 1022,9 hPa 0,0 l/m 5,0 km/h (1 Bft) N-NO 22 0,9 C 2,8 C
01.03.2013 12:06 3,9 C 81 % 1022,8 hPa 0,0 l/m 7,6 km/h (2 Bft) N-NW 337 0,9 C 2,0 C
01.03.2013 12:11 3,9 C 81 % 1022,9 hPa 0,0 l/m 8,3 km/h (2 Bft) N-NO 22 0,9 C 1,8 C
01.03.2013 12:16 3,9 C 81 % 1022,8 hPa 0,0 l/m 9,7 km/h (2 Bft) NW 315 0,9 C 1,4 C
01.03.2013 12:21 4,1 C 81 % 1022,9 hPa 0,0 l/m 7,9 km/h (2 Bft) N-NW 337 1,1 C 2,1 C
01.03.2013 12:26 4,2 C 81 % 1022,9 hPa 0,0 l/m 11,5 km/h (2 Bft) N-NW 337 1,2 C 1,4 C
01.03.2013 12:31 4,2 C 80 % 1022,8 hPa 0,0 l/m 13,0 km/h (3 Bft) NW 315 1,1 C 1,1 C
01.03.2013 12:36 4,3 C 80 % 1022,9 hPa 0,0 l/m 5,8 km/h (2 Bft) N-NW 337 1,2 C 3,0 C
01.03.2013 12:41 4,3 C 80 % 1022,9 hPa 0,0 l/m 14,8 km/h (3 Bft) N-NW 337 1,2 C 0,9 C
01.03.2013 12:46 4,3 C 80 % 1023,0 hPa 0,0 l/m 12,2 km/h (2 Bft) NW 315 1,2 C 1,4 C
01.03.2013 12:51 4,3 C 79 % 1022,8 hPa 0,0 l/m 3,2 km/h (1 Bft) W-NW 292 1,0 C 4,3 C
01.03.2013 12:56 4,4 C 80 % 1022,7 hPa 0,0 l/m 8,3 km/h (2 Bft) NW 315 1,3 C 2,4 C
01.03.2013 13:01 4,6 C 79 % 1022,7 hPa 0,0 l/m 7,6 km/h (2 Bft) W-NW 292 1,3 C 2,8 C
01.03.2013 13:06 4,8 C 79 % 1022,9 hPa 0,0 l/m 5,8 km/h (2 Bft) N-NW 337 1,5 C 3,6 C
01.03.2013 13:11 4,7 C 78 % 1022,7 hPa 0,0 l/m 17,6 km/h (3 Bft) NW 315 1,2 C 1,0 C
01.03.2013 13:16 4,9 C 78 % 1022,7 hPa 0,0 l/m 11,5 km/h (2 Bft) N-NW 337 1,4 C 2,2 C
01.03.2013 13:21 5,3 C 77 % 1022,8 hPa 0,0 l/m 7,6 km/h (2 Bft) N-NW 337 1,6 C 3,6 C
01.03.2013 13:26 5,3 C 76 % 1022,7 hPa 0,0 l/m 5,8 km/h (2 Bft) N-NO 22 1,4 C 4,1 C
01.03.2013 13:31 5,0 C 75 % 1022,7 hPa 0,0 l/m 13,0 km/h (3 Bft) N-NW 337 0,9 C 2,1 C
01.03.2013 13:36 5,2 C 76 % 1022,5 hPa 0,0 l/m 4,0 km/h (1 Bft) N 360 1,3 C 5,2 C
01.03.2013 13:41 5,6 C 76 % 1022,6 hPa 0,0 l/m 4,7 km/h (1 Bft) NW 315 1,7 C 4,9 C
01.03.2013 13:46 5,9 C 75 % 1022,6 hPa 0,0 l/m 4,0 km/h (1 Bft) N-NW 337 1,8 C 5,9 C
01.03.2013 13:51 5,8 C 75 % 1022,5 hPa 0,0 l/m 4,7 km/h (1 Bft) N-NO 22 1,7 C 5,1 C
01.03.2013 13:56 5,8 C 74 % 1022,5 hPa 0,0 l/m 8,3 km/h (2 Bft) N-NW 337 1,5 C 4,0 C
01.03.2013 14:01 5,5 C 73 % 1022,4 hPa 0,0 l/m 9,4 km/h (2 Bft) N-NW 337 1,1 C 3,4 C
01.03.2013 14:06 5,7 C 75 % 1022,6 hPa 0,0 l/m 5,0 km/h (1 Bft) W-NW 292 1,6 C 4,9 C
01.03.2013 14:11 5,9 C 74 % 1022,3 hPa 0,0 l/m 7,6 km/h (2 Bft) NW 315 1,6 C 4,3 C
01.03.2013 14:16 6,2 C 74 % 1022,5 hPa 0,0 l/m 4,0 km/h (1 Bft) N 360 1,9 C 6,2 C
01.03.2013 14:21 6,1 C 73 % 1022,5 hPa 0,0 l/m 4,7 km/h (1 Bft) NO 45 1,6 C 5,4 C
01.03.2013 14:26 6,3 C 74 % 1022,4 hPa 0,0 l/m 5,0 km/h (1 Bft) NO 45 2,0 C 5,6 C
01.03.2013 14:31 6,1 C 72 % 1022,4 hPa 0,0 l/m 6,8 km/h (2 Bft) N 360 1,4 C 4,7 C
01.03.2013 14:36 5,8 C 73 % 1022,3 hPa 0,0 l/m 5,4 km/h (1 Bft) W-NW 292 1,3 C 4,8 C
01.03.2013 14:41 6,0 C 73 % 1022,6 hPa 0,0 l/m 6,5 km/h (2 Bft) N 360 1,5 C 4,7 C
01.03.2013 14:46 5,9 C 73 % 1022,5 hPa 0,0 l/m 10,1 km/h (2 Bft) NO 45 1,4 C 3,7 C
01.03.2013 14:51 5,9 C 72 % 1022,6 hPa 0,0 l/m 9,0 km/h (2 Bft) N-NO 22 1,2 C 4,0 C
01.03.2013 14:56 5,9 C 73 % 1022,7 hPa 0,0 l/m 6,5 km/h (2 Bft) NO 45 1,4 C 4,6 C
01.03.2013 15:01 6,1 C 73 % 1022,6 hPa 0,0 l/m 3,2 km/h (1 Bft) NW 315 1,6 C 6,1 C
01.03.2013 15:06 6,3 C 74 % 1022,5 hPa 0,0 l/m 13,7 km/h (3 Bft) NW 315 2,0 C 3,5 C
01.03.2013 15:11 6,4 C 72 % 1022,7 hPa 0,0 l/m 7,6 km/h (2 Bft) N-NO 22 1,7 C 4,9 C
01.03.2013 15:16 6,2 C 72 % 1022,6 hPa 0,0 l/m 9,7 km/h (2 Bft) N-NO 22 1,5 C 4,2 C
01.03.2013 15:21 5,9 C 72 % 1022,7 hPa 0,0 l/m 11,9 km/h (2 Bft) NO 45 1,2 C 3,4 C
01.03.2013 15:26 5,9 C 72 % 1022,7 hPa 0,0 l/m 8,3 km/h (2 Bft) N-NO 22 1,2 C 4,1 C
01.03.2013 15:31 5,9 C 73 % 1022,7 hPa 0,0 l/m 4,7 km/h (1 Bft) N-NO 22 1,4 C 5,2 C
01.03.2013 15:36 6,1 C 73 % 1022,9 hPa 0,0 l/m 14,8 km/h (3 Bft) N-NW 337 1,6 C 3,1 C
01.03.2013 15:41 6,3 C 73 % 1022,8 hPa 0,0 l/m 6,5 km/h (2 Bft) N-NW 337 1,8 C 5,1 C
01.03.2013 15:46 6,4 C 72 % 1022,8 hPa 0,0 l/m 5,4 km/h (1 Bft) N-NO 22 1,7 C 5,5 C
01.03.2013 15:51 6,3 C 72 % 1022,8 hPa 0,0 l/m 6,8 km/h (2 Bft) W-NW 292 1,6 C 5,0 C
01.03.2013 15:56 6,3 C 72 % 1022,8 hPa 0,0 l/m 4,7 km/h (1 Bft) N-NO 22 1,6 C 5,7 C
01.03.2013 16:01 6,1 C 72 % 1022,8 hPa 0,0 l/m 6,8 km/h (2 Bft) N 360 1,4 C 4,7 C
01.03.2013 16:06 6,1 C 73 % 1022,6 hPa 0,0 l/m 3,2 km/h (1 Bft) NW 315 1,6 C 6,1 C
01.03.2013 16:11 6,1 C 73 % 1022,7 hPa 0,0 l/m 9,4 km/h (2 Bft) N-NW 337 1,6 C 4,1 C
01.03.2013 16:16 6,0 C 73 % 1022,8 hPa 0,0 l/m 7,2 km/h (2 Bft) N-NO 22 1,5 C 4,5 C
01.03.2013 16:21 5,9 C 74 % 1022,8 hPa 0,0 l/m 9,0 km/h (2 Bft) W-NW 292 1,6 C 4,0 C
01.03.2013 16:26 5,9 C 74 % 1022,9 hPa 0,0 l/m 5,0 km/h (1 Bft) NO 45 1,6 C 5,1 C
01.03.2013 16:31 5,9 C 74 % 1022,9 hPa 0,0 l/m 5,8 km/h (2 Bft) O-NO 67 1,6 C 4,8 C
01.03.2013 16:36 5,8 C 74 % 1023,0 hPa 0,0 l/m 2,2 km/h (1 Bft) W 270 1,5 C 5,8 C
01.03.2013 16:41 5,8 C 74 % 1022,9 hPa 0,0 l/m 3,6 km/h (1 Bft) NW 315 1,5 C 5,8 C
01.03.2013 16:46 5,6 C 75 % 1022,8 hPa 0,0 l/m 5,0 km/h (1 Bft) N-NW 337 1,5 C 4,8 C
01.03.2013 16:51 5,5 C 75 % 1022,7 hPa 0,0 l/m 4,7 km/h (1 Bft) W-NW 292 1,4 C 4,8 C
01.03.2013 16:56 5,4 C 75 % 1022,8 hPa 0,0 l/m 6,5 km/h (2 Bft) N-NW 337 1,3 C 4,0 C
01.03.2013 17:01 5,3 C 76 % 1022,8 hPa 0,0 l/m 0,0 km/h (0 Bft) NW 315 1,4 C 5,3 C
01.03.2013 17:06 5,1 C 76 % 1022,7 hPa 0,0 l/m 2,5 km/h (1 Bft) NW 315 1,2 C 5,1 C
01.03.2013 17:11 4,9 C 77 % 1022,8 hPa 0,0 l/m 2,5 km/h (1 Bft) NW 315 1,2 C 4,9 C
01.03.2013 17:16 4,8 C 77 % 1022,8 hPa 0,0 l/m 4,0 km/h (1 Bft) NW 315 1,1 C 4,8 C
01.03.2013 17:21 4,7 C 78 % 1022,7 hPa 0,0 l/m 3,6 km/h (1 Bft) NW 315 1,2 C 4,7 C
01.03.2013 17:26 4,5 C 78 % 1022,8 hPa 0,0 l/m 0,0 km/h (0 Bft) NW 315 1,0 C 4,5 C
01.03.2013 17:31 4,3 C 79 % 1022,7 hPa 0,0 l/m 5,0 km/h (1 Bft) NW 315 1,0 C 3,3 C
01.03.2013 17:36 4,1 C 79 % 1022,9 hPa 0,0 l/m 3,6 km/h (1 Bft) N-NW 337 0,8 C 4,1 C
01.03.2013 17:41 3,9 C 79 % 1022,8 hPa 0,0 l/m 4,7 km/h (1 Bft) N-NO 22 0,6 C 3,0 C
01.03.2013 17:46 3,8 C 79 % 1022,9 hPa 0,0 l/m 4,7 km/h (1 Bft) N 360 0,5 C 2,8 C
01.03.2013 17:51 3,8 C 79 % 1023,0 hPa 0,0 l/m 2,2 km/h (1 Bft) N-NW 337 0,5 C 3,8 C
01.03.2013 17:56 3,6 C 79 % 1023,1 hPa 0,0 l/m 2,5 km/h (1 Bft) N-NW 337 0,3 C 3,6 C
01.03.2013 18:01 3,4 C 79 % 1023,2 hPa 0,0 l/m 2,9 km/h (1 Bft) NW 315 0,1 C 3,4 C
01.03.2013 18:06 3,3 C 79 % 1023,2 hPa 0,0 l/m 2,2 km/h (1 Bft) N-NW 337 0,0 C 3,3 C
01.03.2013 18:11 3,1 C 79 % 1023,3 hPa 0,0 l/m 0,0 km/h (0 Bft) NW 315 -0,2 C 3,1 C
01.03.2013 18:16 2,9 C 80 % 1023,3 hPa 0,0 l/m 0,0 km/h (0 Bft) NW 315 -0,2 C 2,9 C
01.03.2013 18:21 2,8 C 80 % 1023,6 hPa 0,0 l/m 1,4 km/h (1 Bft) NW 315 -0,3 C 2,8 C
01.03.2013 18:26 2,6 C 80 % 1023,4 hPa 0,0 l/m 0,0 km/h (0 Bft) N-NW 337 -0,5 C 2,6 C
01.03.2013 18:31 2,4 C 81 % 1023,4 hPa 0,0 l/m 5,0 km/h (1 Bft) NW 315 -0,5 C 1,1 C
01.03.2013 18:36 2,3 C 81 % 1023,4 hPa 0,0 l/m 2,2 km/h (1 Bft) NW 315 -0,6 C 2,3 C
01.03.2013 18:41 2,2 C 81 % 1023,5 hPa 0,0 l/m 1,8 km/h (1 Bft) NW 315 -0,7 C 2,2 C
01.03.2013 18:46 2,1 C 82 % 1023,7 hPa 0,0 l/m 1,4 km/h (1 Bft) NW 315 -0,6 C 2,1 C
01.03.2013 18:51 1,9 C 82 % 1023,7 hPa 0,0 l/m 0,0 km/h (0 Bft) NW 315 -0,8 C 1,9 C
01.03.2013 18:56 1,8 C 82 % 1023,7 hPa 0,0 l/m 3,6 km/h (1 Bft) NW 315 -0,9 C 1,8 C
01.03.2013 19:01 1,6 C 82 % 1023,7 hPa 0,0 l/m 3,2 km/h (1 Bft) NW 315 -1,1 C 1,6 C
01.03.2013 19:06 1,5 C 83 % 1023,6 hPa 0,0 l/m 0,0 km/h (0 Bft) NW 315 -1,1 C 1,5 C
01.03.2013 19:11 1,4 C 83 % 1023,8 hPa 0,0 l/m 2,2 km/h (1 Bft) NW 315 -1,2 C 1,4 C
01.03.2013 19:16 1,3 C 83 % 1023,8 hPa 0,0 l/m 0,0 km/h (0 Bft) NW 315 -1,3 C 1,3 C
01.03.2013 19:21 1,3 C 83 % 1023,8 hPa 0,0 l/m 2,5 km/h (1 Bft) NW 315 -1,3 C 1,3 C
01.03.2013 19:26 1,3 C 84 % 1023,7 hPa 0,0 l/m 3,2 km/h (1 Bft) NW 315 -1,1 C 1,3 C
01.03.2013 19:31 1,3 C 84 % 1023,8 hPa 0,0 l/m 1,4 km/h (1 Bft) NW 315 -1,1 C 1,3 C
01.03.2013 19:36 1,3 C 84 % 1023,8 hPa 0,0 l/m 2,5 km/h (1 Bft) NW 315 -1,1 C 1,3 C
01.03.2013 19:41 1,1 C 84 % 1023,9 hPa 0,0 l/m 0,0 km/h (0 Bft) NW 315 -1,3 C 1,1 C
01.03.2013 19:46 1,1 C 85 % 1023,8 hPa 0,0 l/m 1,1 km/h (1 Bft) NW 315 -1,1 C 1,1 C
01.03.2013 19:51 1,0 C 85 % 1023,8 hPa 0,0 l/m 0,0 km/h (0 Bft) NW 315 -1,2 C 1,0 C
01.03.2013 19:56 0,9 C 85 % 1023,7 hPa 0,0 l/m 2,5 km/h (1 Bft) NW 315 -1,3 C 0,9 C
01.03.2013 20:01 0,9 C 85 % 1023,7 hPa 0,0 l/m 0,0 km/h (0 Bft) W 270 -1,3 C 0,9 C
01.03.2013 20:06 0,9 C 85 % 1023,9 hPa 0,0 l/m 0,0 km/h (0 Bft) W 270 -1,3 C 0,9 C
01.03.2013 20:11 0,8 C 85 % 1023,9 hPa 0,0 l/m 0,0 km/h (0 Bft) W 270 -1,4 C 0,8 C
01.03.2013 20:16 0,8 C 85 % 1024,0 hPa 0,0 l/m 5,0 km/h (1 Bft) W-NW 292 -1,4 C -0,7 C
01.03.2013 20:21 0,8 C 86 % 1023,8 hPa 0,0 l/m 3,2 km/h (1 Bft) W-NW 292 -1,3 C 0,8 C
01.03.2013 20:26 0,8 C 86 % 1023,9 hPa 0,0 l/m 4,7 km/h (1 Bft) NW 315 -1,3 C -0,5 C
01.03.2013 20:31 0,7 C 86 % 1024,0 hPa 0,0 l/m 4,0 km/h (1 Bft) W-NW 292 -1,4 C 0,7 C
01.03.2013 20:36 0,7 C 87 % 1024,1 hPa 0,0 l/m 3,2 km/h (1 Bft) W-NW 292 -1,2 C 0,7 C
01.03.2013 20:41 0,6 C 87 % 1024,2 hPa 0,0 l/m 0,0 km/h (0 Bft) NW 315 -1,3 C 0,6 C
01.03.2013 20:46 0,6 C 87 % 1024,3 hPa 0,0 l/m 2,2 km/h (1 Bft) NW 315 -1,3 C 0,6 C
01.03.2013 20:51 0,5 C 87 % 1024,4 hPa 0,0 l/m 0,0 km/h (0 Bft) W-NW 292 -1,4 C 0,5 C
01.03.2013 20:56 0,5 C 87 % 1024,3 hPa 0,0 l/m 2,9 km/h (1 Bft) W-NW 292 -1,4 C 0,5 C
01.03.2013 21:01 0,4 C 87 % 1024,3 hPa 0,0 l/m 2,9 km/h (1 Bft) W-NW 292 -1,5 C 0,4 C
01.03.2013 21:06 0,4 C 87 % 1024,3 hPa 0,0 l/m 2,2 km/h (1 Bft) W-NW 292 -1,5 C 0,4 C
01.03.2013 21:11 0,4 C 87 % 1024,4 hPa 0,0 l/m 1,4 km/h (1 Bft) W-NW 292 -1,5 C 0,4 C
01.03.2013 21:16 0,4 C 87 % 1024,5 hPa 0,0 l/m 3,2 km/h (1 Bft) W-NW 292 -1,5 C 0,4 C
01.03.2013 21:21 0,3 C 88 % 1024,6 hPa 0,0 l/m 0,0 km/h (0 Bft) W-NW 292 -1,4 C 0,3 C
01.03.2013 21:26 0,3 C 88 % 1024,6 hPa 0,0 l/m 1,4 km/h (1 Bft) W-NW 292 -1,4 C 0,3 C
01.03.2013 21:31 0,2 C 88 % 1024,6 hPa 0,0 l/m 2,2 km/h (1 Bft) W-NW 292 -1,5 C 0,2 C
01.03.2013 21:36 0,1 C 88 % 1024,6 hPa 0,0 l/m 0,0 km/h (0 Bft) W-NW 292 -1,6 C 0,1 C
01.03.2013 21:41 0,1 C 88 % 1024,8 hPa 0,0 l/m 0,0 km/h (0 Bft) W-NW 292 -1,6 C 0,1 C
01.03.2013 21:46 0,1 C 88 % 1024,8 hPa 0,0 l/m 2,2 km/h (1 Bft) W-NW 292 -1,6 C 0,1 C
01.03.2013 21:51 0,0 C 88 % 1024,6 hPa 0,0 l/m 3,2 km/h (1 Bft) W-NW 292 -1,7 C 0,0 C
01.03.2013 21:56 -0,1 C 88 % 1024,7 hPa 0,0 l/m 1,4 km/h (1 Bft) W-NW 292 -1,8 C -0,1 C
01.03.2013 22:01 -0,1 C 88 % 1024,7 hPa 0,0 l/m 1,4 km/h (1 Bft) W-NW 292 -1,8 C -0,1 C
01.03.2013 22:06 -0,1 C 88 % 1024,7 hPa 0,0 l/m 0,0 km/h (0 Bft) W-NW 292 -1,8 C -0,1 C
01.03.2013 22:11 -0,2 C 88 % 1024,8 hPa 0,0 l/m 2,5 km/h (1 Bft) W-NW 292 -1,9 C -0,2 C
01.03.2013 22:16 -0,2 C 88 % 1024,8 hPa 0,0 l/m 3,2 km/h (1 Bft) W-NW 292 -1,9 C -0,2 C
01.03.2013 22:21 -0,2 C 88 % 1024,8 hPa 0,0 l/m 0,0 km/h (0 Bft) W 270 -1,9 C -0,2 C
01.03.2013 22:26 -0,2 C 88 % 1024,9 hPa 0,0 l/m 1,4 km/h (1 Bft) W 270 -1,9 C -0,2 C
01.03.2013 22:31 -0,2 C 88 % 1025,0 hPa 0,0 l/m 0,0 km/h (0 Bft) W 270 -1,9 C -0,2 C
01.03.2013 22:36 -0,3 C 88 % 1025,0 hPa 0,0 l/m 2,2 km/h (1 Bft) W-NW 292 -2,0 C -0,3 C
01.03.2013 22:41 -0,3 C 89 % 1024,8 hPa 0,0 l/m 3,2 km/h (1 Bft) W-NW 292 -1,9 C -0,3 C
01.03.2013 22:46 -0,4 C 89 % 1024,9 hPa 0,0 l/m 1,4 km/h (1 Bft) W 270 -2,0 C -0,4 C
01.03.2013 22:51 -0,4 C 89 % 1025,1 hPa 0,0 l/m 0,0 km/h (0 Bft) W 270 -2,0 C -0,4 C
01.03.2013 22:56 -0,4 C 89 % 1025,1 hPa 0,0 l/m 1,8 km/h (1 Bft) W 270 -2,0 C -0,4 C
01.03.2013 23:01 -0,4 C 89 % 1025,0 hPa 0,0 l/m 2,5 km/h (1 Bft) W 270 -2,0 C -0,4 C
01.03.2013 23:06 -0,4 C 89 % 1025,2 hPa 0,0 l/m 0,0 km/h (0 Bft) W-NW 292 -2,0 C -0,4 C
01.03.2013 23:11 -0,5 C 89 % 1025,1 hPa 0,0 l/m 2,2 km/h (1 Bft) W-NW 292 -2,1 C -0,5 C
01.03.2013 23:16 -0,5 C 89 % 1025,3 hPa 0,0 l/m 4,0 km/h (1 Bft) W-NW 292 -2,1 C -0,5 C
01.03.2013 23:21 -0,5 C 89 % 1025,1 hPa 0,0 l/m 5,4 km/h (1 Bft) NW 315 -2,1 C -2,3 C
01.03.2013 23:26 -0,6 C 89 % 1025,1 hPa 0,0 l/m 5,8 km/h (2 Bft) NW 315 -2,2 C -2,6 C
01.03.2013 23:31 -0,6 C 90 % 1025,1 hPa 0,0 l/m 4,7 km/h (1 Bft) NW 315 -2,0 C -2,1 C
01.03.2013 23:36 -0,6 C 90 % 1025,1 hPa 0,0 l/m 4,3 km/h (1 Bft) NW 315 -2,0 C -0,6 C
01.03.2013 23:41 -0,6 C 90 % 1025,0 hPa 0,0 l/m 4,0 km/h (1 Bft) NW 315 -2,0 C -0,6 C
01.03.2013 23:46 -0,6 C 90 % 1025,1 hPa 0,0 l/m 4,3 km/h (1 Bft) NW 315 -2,0 C -0,6 C
01.03.2013 23:51 -0,7 C 90 % 1025,1 hPa 0,0 l/m 1,8 km/h (1 Bft) NW 315 -2,1 C -0,7 C
01.03.2013 23:56 -0,7 C 90 % 1025,1 hPa 0,0 l/m 3,6 km/h (1 Bft) W-NW 292 -2,1 C -0,7 C
_ Min-Zeit 23:51 14:31 05:56 - 04:36 - - 23:26 01:11
Minimum _ -0,7 C 72 % 1020,8 hPa - 0,0 km/h (0 Bft) - - -2,2 C -2,7 C
_ Max-Zeit 15:11 02:31 23:16 00:01 01:11 - - 03:36 14:16
Maximum _ 6,4 C 94 % 1025,3 hPa 0,0 l/m 19,1 km/h
W (3 Bft)
- - 2,0 C 6,2 C
Durchschnitt _ 2,8 C 85 % 1022,6 hPa #0,0 l/m 6,0 km/h (2 Bft) NW - 0,5 C 1,5 C
(c) by David Heller